createdAt,value
2022-10-18T07:08:43.641Z,17.37
2022-10-18T07:11:15.930Z,17.39
2022-10-18T07:13:42.540Z,17.29
2022-10-18T07:16:17.392Z,17.27
2022-10-18T07:18:52.331Z,17.18
2022-10-18T07:21:25.810Z,17.28
2022-10-18T07:23:52.717Z,17.23
2022-10-18T07:26:31.099Z,17.23
2022-10-18T07:29:05.967Z,17.37
2022-10-18T07:31:33.402Z,17.41
2022-10-18T07:33:59.994Z,17.42
2022-10-18T07:36:29.400Z,17.38
2022-10-18T07:38:55.965Z,17.38
2022-10-18T07:41:24.059Z,17.30
2022-10-18T07:43:51.850Z,17.33
2022-10-18T07:46:20.029Z,17.46
2022-10-18T07:48:46.813Z,17.48
2022-10-18T07:51:13.549Z,17.54
2022-10-18T07:53:40.431Z,17.39
2022-10-18T07:56:18.359Z,17.50
2022-10-18T07:58:53.743Z,17.40
2022-10-18T08:01:24.028Z,17.41
2022-10-18T08:03:50.771Z,17.44
2022-10-18T08:06:19.155Z,17.44
2022-10-18T08:08:46.635Z,17.38
2022-10-18T08:11:15.796Z,17.32
2022-10-18T08:13:42.798Z,17.26
2022-10-18T08:16:11.736Z,17.21
2022-10-18T08:18:38.467Z,17.31
2022-10-18T08:21:06.726Z,17.34
2022-10-18T08:23:33.601Z,17.34
2022-10-18T08:26:06.081Z,17.53
2022-10-18T08:28:32.754Z,17.42
2022-10-18T08:31:12.669Z,17.43
2022-10-18T08:33:39.991Z,17.41
2022-10-18T08:36:08.437Z,17.51
2022-10-18T08:38:36.293Z,17.46
2022-10-18T08:41:16.166Z,17.46
2022-10-18T08:44:15.960Z,17.47
2022-10-18T08:46:46.016Z,17.44
2022-10-18T08:49:22.336Z,17.48
2022-10-18T08:51:49.633Z,17.53
2022-10-18T08:54:22.509Z,17.69
2022-10-18T08:56:58.349Z,17.75
2022-10-18T08:59:25.717Z,17.80
2022-10-18T09:02:01.382Z,17.89
2022-10-18T09:04:49.792Z,17.76
2022-10-18T09:07:22.142Z,17.69
2022-10-18T09:09:54.649Z,17.72
2022-10-18T09:12:43.608Z,17.70
2022-10-18T09:15:18.583Z,17.79
2022-10-18T09:18:00.161Z,17.81
2022-10-18T09:20:29.263Z,17.78
2022-10-18T09:23:20.623Z,17.87
2022-10-18T09:25:57.864Z,17.84
2022-10-18T09:28:49.356Z,17.91
2022-10-18T09:31:20.700Z,17.97
2022-10-18T09:34:08.535Z,17.92
2022-10-18T09:36:37.805Z,17.88
2022-10-18T09:39:15.488Z,17.88
2022-10-18T09:41:51.688Z,17.91
2022-10-18T09:44:23.240Z,17.93
2022-10-18T09:46:57.793Z,17.97
2022-10-18T09:49:30.256Z,18.01
2022-10-18T09:51:57.106Z,17.98
2022-10-18T09:54:32.251Z,18.01
2022-10-18T09:57:36.128Z,18.16
2022-10-18T10:00:05.094Z,18.15
2022-10-18T10:02:31.767Z,18.11
2022-10-18T10:05:00.981Z,17.98
2022-10-18T10:07:35.510Z,18.09
2022-10-18T10:10:12.690Z,18.16
2022-10-18T10:12:40.025Z,18.16
2022-10-18T10:15:33.127Z,18.28
2022-10-18T10:18:20.330Z,18.07
2022-10-18T10:20:55.364Z,18.13
2022-10-18T10:23:21.815Z,18.18
2022-10-18T10:25:54.069Z,18.32
2022-10-18T10:28:23.670Z,18.47
2022-10-18T10:30:50.711Z,18.38
2022-10-18T10:33:38.158Z,18.36
2022-10-18T10:36:10.194Z,18.37
2022-10-18T10:38:36.675Z,18.39
2022-10-18T10:41:03.265Z,18.37
2022-10-18T10:43:39.153Z,18.37
2022-10-18T10:46:10.207Z,18.38
2022-10-18T10:49:14.188Z,18.49
2022-10-18T10:51:43.537Z,18.45
2022-10-18T10:54:18.568Z,18.59
2022-10-18T10:56:55.687Z,18.91
2022-10-18T10:59:24.118Z,18.92
2022-10-18T11:02:20.595Z,18.87
2022-10-18T11:04:52.561Z,18.93
2022-10-18T11:07:30.442Z,18.95
2022-10-18T11:10:10.984Z,18.82
2022-10-18T11:13:03.048Z,18.85
2022-10-18T11:15:41.668Z,18.90
2022-10-18T11:18:17.468Z,18.79
2022-10-18T11:20:57.610Z,18.80
2022-10-18T11:23:31.070Z,18.81
2022-10-18T11:26:12.798Z,18.75
2022-10-18T11:28:53.286Z,18.70
2022-10-18T11:31:58.903Z,18.69
2022-10-18T11:34:55.047Z,18.67
2022-10-18T11:38:07.698Z,18.59
2022-10-18T11:41:06.563Z,18.44
2022-10-18T11:44:01.129Z,18.42
2022-10-18T11:47:01.486Z,18.48
2022-10-18T11:50:00.238Z,18.50
2022-10-18T11:52:42.470Z,18.55
2022-10-18T11:55:32.851Z,18.47
2022-10-18T11:58:27.910Z,18.44
2022-10-18T12:01:03.601Z,18.45
2022-10-18T12:03:48.761Z,18.57
2022-10-18T12:06:17.670Z,18.67
2022-10-18T12:08:48.399Z,18.71
2022-10-18T12:11:19.984Z,18.61
2022-10-18T12:13:54.266Z,18.63
2022-10-18T12:16:45.681Z,18.53
2022-10-18T12:19:23.320Z,18.51
2022-10-18T12:21:57.438Z,18.52
2022-10-18T12:24:30.795Z,18.61
2022-10-18T12:27:00.204Z,18.65
2022-10-18T12:29:29.771Z,18.70
2022-10-18T12:31:59.864Z,18.64
2022-10-18T12:34:32.007Z,18.53
2022-10-18T12:37:04.748Z,18.54
2022-10-18T12:39:43.920Z,18.40
2022-10-18T12:42:25.864Z,18.38
2022-10-18T12:45:24.260Z,18.40
2022-10-18T12:47:51.031Z,18.48
2022-10-18T12:50:38.639Z,18.40
2022-10-18T12:53:26.681Z,18.49
2022-10-18T12:55:54.046Z,18.60
2022-10-18T12:58:20.585Z,18.60
2022-10-18T13:00:47.763Z,18.69
2022-10-18T13:03:17.804Z,18.73
2022-10-18T13:05:56.065Z,18.74
2022-10-18T13:08:33.872Z,18.75
2022-10-18T13:11:09.816Z,18.88
2022-10-18T13:14:10.781Z,18.84
2022-10-18T13:16:56.426Z,18.94
2022-10-18T13:19:41.432Z,18.74
2022-10-18T13:22:23.199Z,18.79
2022-10-18T13:25:22.232Z,18.82
2022-10-18T13:28:06.040Z,18.63
2022-10-18T13:30:48.367Z,18.84
2022-10-18T13:33:17.831Z,18.88
2022-10-18T13:35:58.875Z,18.85
2022-10-18T13:39:04.060Z,18.80
2022-10-18T13:41:57.708Z,18.87
2022-10-18T13:44:40.047Z,18.79
2022-10-18T13:47:07.024Z,18.84
2022-10-18T13:49:39.550Z,18.95
2022-10-18T13:52:30.929Z,19.03
2022-10-18T13:55:22.126Z,19.09
2022-10-18T13:58:33.936Z,19.11
2022-10-18T14:01:21.641Z,18.96
2022-10-18T14:04:17.825Z,18.87
2022-10-18T14:06:47.369Z,18.91
2022-10-18T14:12:35.284Z,18.78
2022-10-18T14:15:21.302Z,18.73
2022-10-18T14:17:53.626Z,18.78
2022-10-18T14:20:49.424Z,18.82
2022-10-18T14:23:38.180Z,18.73
2022-10-18T14:26:22.632Z,18.70
2022-10-18T14:29:17.316Z,18.71
2022-10-18T14:31:51.623Z,18.74
2022-10-18T14:34:18.572Z,18.73
2022-10-18T14:36:48.538Z,18.75
2022-10-18T14:39:24.482Z,18.77
2022-10-18T14:41:55.057Z,18.74
2022-10-18T14:44:26.204Z,18.62
2022-10-18T14:46:55.704Z,18.62
2022-10-18T14:49:22.211Z,18.56
2022-10-18T14:51:56.876Z,18.71
2022-10-18T14:54:30.670Z,18.60
2022-10-18T14:56:59.754Z,18.71
2022-10-18T14:59:31.076Z,18.57
2022-10-18T15:02:02.639Z,18.63
2022-10-18T15:04:33.177Z,18.59
2022-10-18T15:07:05.909Z,18.63
2022-10-18T15:09:34.524Z,18.69
2022-10-18T15:12:03.348Z,18.65
2022-10-18T15:14:30.582Z,18.58
2022-10-18T15:17:08.482Z,18.54
2022-10-18T15:19:39.393Z,18.46
2022-10-18T15:25:31.783Z,18.53
2022-10-18T15:27:59.781Z,18.40
2022-10-18T15:30:37.902Z,18.41
2022-10-18T15:33:09.750Z,18.32
2022-10-18T15:35:38.570Z,18.42
2022-10-18T15:38:43.377Z,18.39
2022-10-18T15:41:41.128Z,18.45
2022-10-18T15:44:14.659Z,18.43
2022-10-18T15:46:41.273Z,18.32
2022-10-18T15:49:45.788Z,18.40
2022-10-18T15:52:21.437Z,18.46
2022-10-18T15:57:16.581Z,18.45
2022-10-18T15:59:52.024Z,18.33
2022-10-18T16:02:19.141Z,18.19
2022-10-18T16:04:47.387Z,18.21
2022-10-18T16:07:14.312Z,18.28
2022-10-18T16:09:40.842Z,18.31
2022-10-18T16:12:07.375Z,18.31
2022-10-18T16:14:34.038Z,18.39
2022-10-18T16:17:03.484Z,18.36
2022-10-18T16:19:30.665Z,18.35
2022-10-18T16:22:05.948Z,18.31
2022-10-18T16:24:33.154Z,18.35
2022-10-18T16:26:59.770Z,18.23
2022-10-18T16:29:28.654Z,18.23
2022-10-18T16:31:58.173Z,18.16
2022-10-18T16:34:28.995Z,18.05
2022-10-18T16:36:59.135Z,17.98
2022-10-18T16:39:26.118Z,18.08
2022-10-18T16:41:52.932Z,18.12
2022-10-18T16:44:19.533Z,18.14
2022-10-18T16:47:23.082Z,18.08
2022-10-18T16:49:50.372Z,18.03
2022-10-18T16:52:16.907Z,17.96
2022-10-18T16:54:44.072Z,17.91
2022-10-18T16:57:12.621Z,17.95
2022-10-18T16:59:39.098Z,17.98
2022-10-18T17:02:09.255Z,17.98
2022-10-18T17:04:41.731Z,17.98
2022-10-18T17:07:18.506Z,17.95
2022-10-18T17:09:48.691Z,17.90
2022-10-18T17:12:21.379Z,17.62
2022-10-18T17:14:50.447Z,17.72
2022-10-18T17:17:17.173Z,17.74
2022-10-18T17:19:50.337Z,17.70
2022-10-18T17:22:16.955Z,17.54
2022-10-18T17:24:43.713Z,17.56
2022-10-18T17:27:11.477Z,17.59
2022-10-18T17:29:38.056Z,17.65
2022-10-18T17:32:04.733Z,17.62
2022-10-18T17:34:31.836Z,17.63
2022-10-18T17:36:58.536Z,17.66
2022-10-18T17:39:25.246Z,17.67
2022-10-18T17:41:58.103Z,17.63
2022-10-18T17:44:27.603Z,17.60
2022-10-18T17:46:54.279Z,17.62
2022-10-18T17:49:24.343Z,17.66
2022-10-18T17:52:03.296Z,17.64
2022-10-18T17:54:33.486Z,17.60
2022-10-18T17:57:00.158Z,17.58
2022-10-18T17:59:31.418Z,17.58
2022-10-18T18:01:58.093Z,17.58
2022-10-18T18:04:25.799Z,17.53
2022-10-18T18:06:53.046Z,17.25
2022-10-18T18:09:21.041Z,17.31
2022-10-18T18:11:48.423Z,17.27
2022-10-18T18:14:17.691Z,17.05
2022-10-18T18:16:46.129Z,17.23
2022-10-18T18:19:13.891Z,17.25
2022-10-18T18:21:41.195Z,17.28
2022-10-18T18:24:10.048Z,17.33
2022-10-18T18:26:40.362Z,17.36
2022-10-18T18:29:06.975Z,17.40
2022-10-18T18:31:38.788Z,17.32
2022-10-18T18:34:09.550Z,17.30
2022-10-18T18:36:39.036Z,17.30
2022-10-18T18:39:11.396Z,17.31
2022-10-18T18:41:38.417Z,17.29
2022-10-18T18:44:06.137Z,17.20
2022-10-18T18:46:37.099Z,17.31
2022-10-18T18:49:05.724Z,17.26
2022-10-18T18:51:33.385Z,17.25
2022-10-18T18:54:00.296Z,17.26
2022-10-18T18:56:28.811Z,17.24
2022-10-18T18:58:56.741Z,17.25
2022-10-18T19:01:24.970Z,17.21
2022-10-18T19:03:52.827Z,17.21
2022-10-18T19:06:26.077Z,17.20
2022-10-18T19:08:54.581Z,17.14
2022-10-18T19:11:22.155Z,17.15
2022-10-18T19:13:49.177Z,17.07
2022-10-18T19:16:23.554Z,16.94
2022-10-18T19:18:53.974Z,16.94
2022-10-18T19:21:21.624Z,16.85
2022-10-18T19:23:51.289Z,16.81
2022-10-18T19:26:25.268Z,16.84
2022-10-18T19:28:51.839Z,16.80
2022-10-18T19:31:18.384Z,16.76
2022-10-18T19:33:55.622Z,16.76
2022-10-18T19:36:25.298Z,16.62
2022-10-18T19:38:51.893Z,16.67
2022-10-18T19:41:18.408Z,16.71
2022-10-18T19:43:45.295Z,16.65
2022-10-18T19:46:11.928Z,16.72
2022-10-18T19:48:41.253Z,16.71
2022-10-18T19:51:09.483Z,16.63
2022-10-18T19:53:36.572Z,16.64
2022-10-18T19:56:07.391Z,16.64
2022-10-18T19:58:34.109Z,16.56
2022-10-18T20:01:02.308Z,16.57
2022-10-18T20:03:31.834Z,16.47
2022-10-18T20:05:59.659Z,16.42
2022-10-18T20:08:27.959Z,16.39
2022-10-18T20:10:55.589Z,16.34
2022-10-18T20:13:22.608Z,16.40
2022-10-18T20:15:51.089Z,16.37
2022-10-18T20:18:18.674Z,16.29
2022-10-18T20:20:48.105Z,16.29
2022-10-18T20:23:16.194Z,16.16
2022-10-18T20:25:42.754Z,16.15
2022-10-18T20:28:12.067Z,16.07
2022-10-18T20:30:38.624Z,16.09
2022-10-18T20:33:05.117Z,16.02
2022-10-18T20:35:32.389Z,16.05
2022-10-18T20:38:05.608Z,16.01
2022-10-18T20:40:32.469Z,15.98
2022-10-18T20:43:03.604Z,16.01
2022-10-18T20:45:30.519Z,15.99
2022-10-18T20:47:56.941Z,15.93
2022-10-18T20:50:23.383Z,15.87
2022-10-18T20:52:51.531Z,15.83
2022-10-18T20:55:19.034Z,15.71
2022-10-18T20:57:49.548Z,15.50
2022-10-18T21:00:16.573Z,15.43
2022-10-18T21:02:43.041Z,15.49
2022-10-18T21:05:09.765Z,15.42
2022-10-18T21:07:36.824Z,15.30
2022-10-18T21:10:03.878Z,15.34
2022-10-18T21:12:30.696Z,15.29
2022-10-18T21:14:57.448Z,15.09
2022-10-18T21:17:24.069Z,15.05
2022-10-18T21:19:50.554Z,15.01
2022-10-18T21:22:20.145Z,15.01
2022-10-18T21:24:50.335Z,15.08
2022-10-18T21:27:16.875Z,14.88
2022-10-18T21:29:43.932Z,14.89
2022-10-18T21:32:10.359Z,14.99
2022-10-18T21:34:42.195Z,14.98
2022-10-18T21:37:08.735Z,14.91
2022-10-18T21:39:35.528Z,14.93
2022-10-18T21:42:02.097Z,14.84
2022-10-18T21:44:28.703Z,14.83
2022-10-18T21:46:55.501Z,14.78
2022-10-18T21:49:25.249Z,14.65
2022-10-18T21:51:53.481Z,14.65
2022-10-18T21:54:20.120Z,14.70
2022-10-18T21:59:37.574Z,14.55
2022-10-18T22:02:08.807Z,14.39
2022-10-18T22:04:51.926Z,14.33
2022-10-18T22:07:33.505Z,14.48
2022-10-18T22:10:04.329Z,14.40
2022-10-18T22:12:30.858Z,14.31
2022-10-18T22:14:57.383Z,14.16
2022-10-18T22:17:24.334Z,14.16
2022-10-18T22:19:50.804Z,14.34
2022-10-18T22:22:28.615Z,14.35
2022-10-18T22:24:55.172Z,14.24
2022-10-18T22:27:21.680Z,14.04
2022-10-18T22:29:48.116Z,14.11
2022-10-18T22:32:14.700Z,13.98
2022-10-18T22:34:41.292Z,13.96
2022-10-18T22:39:56.868Z,13.88
2022-10-18T22:42:23.836Z,13.90
2022-10-18T22:44:50.343Z,13.83
2022-10-18T22:50:01.655Z,13.83
2022-10-18T22:52:28.129Z,13.81
2022-10-18T22:54:54.621Z,13.78
2022-10-18T22:57:21.183Z,13.77
2022-10-18T22:59:47.633Z,13.74
2022-10-18T23:02:18.930Z,13.59
2022-10-18T23:04:54.516Z,13.68
2022-10-18T23:07:23.074Z,13.61
2022-10-18T23:09:49.610Z,13.77
2022-10-18T23:12:16.167Z,13.80
2022-10-18T23:14:43.805Z,13.63
2022-10-18T23:17:12.337Z,13.75
2022-10-18T23:19:38.988Z,13.61
2022-10-18T23:22:06.387Z,13.68
2022-10-18T23:24:32.964Z,13.64
2022-10-18T23:26:59.527Z,13.61
2022-10-18T23:29:26.018Z,13.61
2022-10-18T23:31:52.568Z,13.54
2022-10-18T23:34:23.517Z,13.52
2022-10-18T23:36:50.096Z,13.56
2022-10-18T23:39:16.596Z,13.37
2022-10-18T23:41:43.155Z,13.37
2022-10-18T23:44:10.904Z,13.36
2022-10-18T23:46:39.269Z,13.50
2022-10-18T23:49:07.787Z,13.33
2022-10-18T23:51:44.706Z,13.23
2022-10-18T23:54:11.377Z,13.31
2022-10-18T23:56:37.913Z,13.18
2022-10-18T23:59:04.409Z,13.16
